Time;durP1;ratioP1;P1;durP2;ratioP2;P2;SDS_P1;SDS_P2;PMS_P1;PMS_P2;Temp;Humidity;BMP_temperature;BMP_pressure;BME280_temperature;BME280_humidity;BME280_pressure;Samples;Min_cycle;Max_cycle;Signal;HPM_P1;HPM_P2
2022/02/11 00:08:58;;;;;;;27.50;20.20;;;;;;;4.65;74.90;100660.06;1729588;83;20252;-68
2022/02/11 00:14:01;;;;;;;24.43;18.43;;;;;;;4.75;75.22;100652.16;1835076;77;22027;-66
2022/02/11 00:16:28;;;;;;;24.35;18.05;;;;;;;4.75;75.31;100654.28;1799614;79;21014;-66
2022/02/11 00:18:58;;;;;;;24.52;18.73;;;;;;;4.80;75.36;100645.69;1799567;79;21954;-67
2022/02/11 00:21:24;;;;;;;25.12;18.48;;;;;;;4.83;75.49;100647.91;1799624;79;21191;-67
2022/02/11 00:23:51;;;;;;;25.25;18.20;;;;;;;4.90;75.52;100649.98;1799666;78;20977;-67
2022/02/11 00:26:18;;;;;;;24.87;19.05;;;;;;;4.98;75.59;100646.27;1799477;79;20931;-67
2022/02/11 00:31:49;;;;;;;23.62;17.25;;;;;;;5.07;75.71;100641.00;1770796;79;21228;-67
2022/02/11 00:33:58;;;;;;;20.88;16.97;;;;;;;5.14;75.72;100643.86;1796737;79;20959;-67
2022/02/11 00:36:40;;;;;;;21.33;17.02;;;;;;;5.20;75.75;100638.70;1799678;79;20978;-67
2022/02/11 00:45:30;;;;;;;20.92;16.62;;;;;;;5.39;75.70;100624.45;1799492;79;21505;-67
2022/02/11 01:03:01;;;;;;;21.73;15.90;;;;;;;5.60;75.50;100596.19;1799646;79;21542;-68
2022/02/11 01:05:23;;;;;;;20.85;15.88;;;;;;;5.64;75.47;100600.00;1799424;78;21074;-68
2022/02/11 01:07:50;;;;;;;20.77;15.83;;;;;;;5.64;75.43;100603.98;1799626;79;21007;-67
2022/02/11 01:10:17;;;;;;;19.42;15.88;;;;;;;5.64;75.37;100597.88;1787108;78;21097;-67
2022/02/11 01:12:45;;;;;;;21.20;15.78;;;;;;;5.64;75.35;100593.90;1761234;81;21093;-68
2022/02/11 01:15:12;;;;;;;20.40;15.38;;;;;;;5.64;75.29;100597.88;1764224;78;21466;-67
2022/02/11 01:17:46;;;;;;;22.35;15.28;;;;;;;5.64;75.27;100600.52;1767632;80;21526;-67
2022/02/11 01:20:26;;;;;;;18.87;14.38;;;;;;;5.64;75.18;100595.22;1767530;80;20951;-68
2022/02/11 01:23:11;;;;;;;21.50;15.05;;;;;;;5.63;75.16;100592.29;1782308;78;21130;-67
2022/02/11 01:28:35;;;;;;;18.90;14.65;;;;;;;5.63;75.05;100589.64;1798678;79;20999;-67
2022/02/11 01:55:19;;;;;;;18.27;14.30;;;;;;;5.38;74.89;100563.23;1798994;79;20991;-67
2022/02/11 02:00:46;;;;;;;17.37;13.62;;;;;;;5.36;74.84;100566.13;1798036;78;21112;-67
2022/02/11 02:14:10;;;;;;;17.48;12.93;;;;;;;5.40;74.69;100554.56;1798721;79;20999;-68
2022/02/11 02:22:18;;;;;;;15.60;12.30;;;;;;;5.39;74.39;100541.81;1798837;79;21514;-68
2022/02/11 02:24:45;;;;;;;16.80;13.03;;;;;;;5.40;74.38;100538.67;1796002;79;21073;-68
2022/02/11 02:27:22;;;;;;;17.95;12.80;;;;;;;5.43;74.29;100536.08;1796280;79;20936;-68
2022/02/11 02:35:38;;;;;;;14.10;11.18;;;;;;;5.43;73.82;100523.66;1798879;79;21535;-66
2022/02/11 02:38:34;;;;;;;16.55;12.33;;;;;;;5.45;73.72;100520.77;1795917;79;21498;-67
2022/02/11 02:57:15;;;;;;;13.55;10.78;;;;;;;5.63;72.53;100482.33;1799140;79;21157;-67
2022/02/11 03:14:33;;;;;;;13.72;10.70;;;;;;;5.69;72.11;100476.62;1749684;82;21007;-68
2022/02/11 03:53:55;;;;;;;14.83;11.08;;;;;;;5.88;69.16;100445.84;1789793;80;20966;-67
2022/02/11 04:55:24;;;;;;;16.77;11.55;;;;;;;5.30;69.43;100397.52;1795068;78;20995;-67
2022/02/11 05:00:38;;;;;;;17.00;12.78;;;;;;;5.25;69.47;100393.92;1815612;78;21030;-68
2022/02/11 05:03:04;;;;;;;14.73;11.18;;;;;;;5.22;69.50;100394.37;1790112;80;20987;-68
2022/02/11 05:05:48;;;;;;;16.70;12.58;;;;;;;5.20;69.50;100397.75;1789938;80;21580;-68
2022/02/11 05:08:03;;;;;;;16.62;11.68;;;;;;;5.15;69.54;100390.49;1813362;78;20954;-68
2022/02/11 05:10:31;;;;;;;19.02;13.20;;;;;;;5.14;69.59;100387.56;1824542;78;21562;-68
2022/02/11 05:13:00;;;;;;;16.65;11.75;;;;;;;5.13;69.61;100390.73;1794604;79;20940;-67
2022/02/11 05:15:29;;;;;;;17.92;12.90;;;;;;;5.13;69.62;100398.67;1795450;78;21459;-68
2022/02/11 05:17:56;;;;;;;15.58;11.65;;;;;;;5.11;69.64;100388.01;1804150;79;21502;-68
2022/02/11 05:20:22;;;;;;;16.25;11.75;;;;;;;5.14;69.67;100391.53;1800940;79;21387;-68
2022/02/11 05:22:49;;;;;;;17.90;13.10;;;;;;;5.17;69.67;100393.21;1800654;78;21464;-68
2022/02/11 05:25:16;;;;;;;16.30;11.10;;;;;;;5.16;69.61;100390.77;1800929;78;21084;-68
2022/02/11 05:27:45;;;;;;;16.55;12.33;;;;;;;5.17;69.62;100386.59;1800965;79;21521;-68
2022/02/11 05:30:12;;;;;;;19.00;11.97;;;;;;;5.19;69.58;100385.03;1801381;79;21565;-68
2022/02/11 05:32:40;;;;;;;15.48;11.45;;;;;;;5.22;69.59;100379.81;1800600;79;21612;-68
2022/02/11 05:35:10;;;;;;;15.18;11.38;;;;;;;5.25;69.59;100374.86;1799277;78;21892;-68
2022/02/11 05:37:36;;;;;;;16.15;10.80;;;;;;;5.31;69.55;100373.16;1776241;79;21019;-69
2022/02/11 05:40:05;;;;;;;14.68;11.22;;;;;;;5.36;69.46;100374.59;1768071;80;21113;-68
2022/02/11 05:42:32;;;;;;;15.45;11.50;;;;;;;5.40;69.35;100377.91;1798271;78;20983;-68
2022/02/11 05:44:58;;;;;;;14.80;10.82;;;;;;;5.47;69.21;100386.27;1801446;78;21573;-68
2022/02/11 05:47:25;;;;;;;13.95;10.70;;;;;;;5.50;69.05;100371.25;1800981;79;21554;-68
2022/02/11 05:49:51;;;;;;;17.52;10.78;;;;;;;5.55;68.86;100380.63;1801232;79;20903;-68
2022/02/11 05:52:20;;;;;;;14.58;10.45;;;;;;;5.57;68.55;100374.59;1800820;79;21448;-68
2022/02/11 05:54:47;;;;;;;13.10;10.05;;;;;;;5.60;68.07;100362.22;1801086;79;20960;-68
2022/02/11 05:57:13;;;;;;;16.02;10.65;;;;;;;5.68;68.10;100364.52;1801086;79;21089;-68
2022/02/11 05:59:40;;;;;;;14.00;10.10;;;;;;;5.73;67.84;100357.23;1801087;79;21521;-67
2022/02/11 06:02:07;;;;;;;16.87;10.70;;;;;;;5.78;67.63;100344.88;1801028;79;20992;-67
2022/02/11 06:04:34;;;;;;;13.13;10.00;;;;;;;5.84;67.51;100350.59;1800879;79;20991;-68
2022/02/11 06:07:03;;;;;;;13.22;9.93;;;;;;;5.90;67.06;100353.37;1801174;79;21597;-67
2022/02/11 06:09:30;;;;;;;13.32;10.25;;;;;;;5.95;66.95;100352.97;1801140;79;21435;-68
2022/02/11 06:11:57;;;;;;;12.95;9.83;;;;;;;5.99;66.64;100355.47;1801316;79;21128;-68
2022/02/11 06:14:24;;;;;;;13.48;10.43;;;;;;;6.03;66.31;100367.75;1800745;78;21140;-68
2022/02/11 06:16:50;;;;;;;15.25;10.88;;;;;;;6.05;66.08;100372.28;1801006;79;21069;-68
2022/02/11 06:19:18;;;;;;;14.20;10.30;;;;;;;6.08;65.79;100377.13;1800991;79;21035;-68
2022/02/11 06:21:45;;;;;;;13.35;9.85;;;;;;;6.08;65.61;100376.59;1801327;79;20940;-69
2022/02/11 06:24:11;;;;;;;14.23;10.45;;;;;;;6.09;65.50;100380.08;1801128;79;21110;-68
2022/02/11 06:26:37;;;;;;;14.30;9.95;;;;;;;6.10;65.50;100384.34;1801237;79;21037;-68
2022/02/11 06:29:04;;;;;;;14.70;10.13;;;;;;;6.11;65.38;100374.81;1800864;79;21525;-68
2022/02/11 06:31:33;;;;;;;15.05;10.72;;;;;;;6.15;65.41;100372.50;1801107;79;21580;-68
2022/02/11 06:34:00;;;;;;;13.18;8.93;;;;;;;6.21;65.26;100374.75;1800604;79;21411;-68
2022/02/11 06:36:27;;;;;;;13.80;9.68;;;;;;;6.24;65.03;100376.42;1801101;79;21030;-68
2022/02/11 06:38:54;;;;;;;16.32;10.08;;;;;;;6.26;64.94;100367.72;1801000;79;21526;-68
2022/02/11 06:41:20;;;;;;;13.35;10.00;;;;;;;6.32;64.78;100364.66;1801350;79;21007;-68
2022/02/11 06:43:48;;;;;;;13.25;9.95;;;;;;;6.33;64.48;100359.64;1797358;78;21034;-68
2022/02/11 06:46:17;;;;;;;13.58;9.20;;;;;;;6.38;64.25;100363.70;1769056;80;21047;-68
2022/02/11 06:48:44;;;;;;;13.22;9.70;;;;;;;6.46;64.18;100359.91;1769394;80;21522;-67
2022/02/11 06:51:13;;;;;;;12.98;9.05;;;;;;;6.50;63.87;100365.02;1769343;80;21419;-68
2022/02/11 06:53:40;;;;;;;11.63;9.10;;;;;;;6.56;63.87;100370.72;1769307;80;21003;-68
2022/02/11 06:56:07;;;;;;;12.78;9.20;;;;;;;6.60;63.55;100367.88;1769683;80;21076;-67
2022/02/11 06:58:36;;;;;;;11.80;8.98;;;;;;;6.67;63.53;100371.20;1771361;79;20987;-68
2022/02/11 07:01:07;;;;;;;11.48;8.53;;;;;;;6.70;63.40;100360.11;1801220;79;21122;-68
2022/02/11 07:03:34;;;;;;;13.43;9.80;;;;;;;6.75;63.23;100365.53;1800943;79;21075;-69
2022/02/11 07:06:01;;;;;;;12.98;9.15;;;;;;;6.77;63.19;100359.45;1801221;79;21094;-68
2022/02/11 07:08:28;;;;;;;12.95;8.90;;;;;;;6.83;62.99;100356.91;1800812;79;20999;-68
2022/02/11 07:10:57;;;;;;;11.50;9.35;;;;;;;6.88;62.91;100354.33;1801179;79;21498;-68
2022/02/11 07:13:24;;;;;;;13.65;9.70;;;;;;;6.93;62.80;100354.44;1800740;78;21538;-68
2022/02/11 07:15:53;;;;;;;12.53;8.98;;;;;;;6.94;62.67;100350.73;1805257;78;21057;-68
2022/02/11 07:18:20;;;;;;;11.57;9.05;;;;;;;6.95;62.51;100350.50;1799344;79;21025;-67
2022/02/11 07:20:49;;;;;;;14.10;9.45;;;;;;;6.99;62.57;100346.84;1798915;78;20983;-68
2022/02/11 07:23:16;;;;;;;12.23;9.28;;;;;;;7.03;62.48;100350.11;1801038;79;21115;-68
2022/02/11 07:25:45;;;;;;;11.18;8.55;;;;;;;7.06;62.45;100352.81;1800228;78;20984;-68
2022/02/11 07:28:15;;;;;;;12.73;9.13;;;;;;;7.11;62.40;100344.12;1801202;79;21082;-68
2022/02/11 07:30:48;;;;;;;12.50;8.70;;;;;;;7.14;62.25;100344.48;1800931;79;21565;-68
2022/02/11 07:33:14;;;;;;;12.43;8.98;;;;;;;7.22;62.17;100365.84;1800793;79;21660;-68
2022/02/11 07:35:40;;;;;;;12.80;8.75;;;;;;;7.26;62.17;100367.77;1801270;79;21037;-68
2022/02/11 07:38:08;;;;;;;12.33;9.40;;;;;;;7.27;61.97;100358.78;1800896;79;21147;-68
2022/02/11 07:40:35;;;;;;;12.25;9.40;;;;;;;7.32;61.88;100358.58;1800998;79;20947;-68
2022/02/11 07:43:02;;;;;;;13.50;9.15;;;;;;;7.37;61.78;100362.63;1800967;79;21423;-67
2022/02/11 07:45:30;;;;;;;12.65;9.15;;;;;;;7.42;61.77;100361.41;1769549;80;21042;-68
2022/02/11 07:47:59;;;;;;;15.63;10.58;;;;;;;7.51;61.75;100359.44;1769358;81;20995;-68
2022/02/11 07:50:27;;;;;;;13.53;9.68;;;;;;;7.55;61.57;100363.74;1769374;80;21208;-68
2022/02/11 07:52:54;;;;;;;14.75;10.98;;;;;;;7.54;61.33;100354.17;1773704;78;21074;-68
2022/02/11 07:55:23;;;;;;;15.25;10.48;;;;;;;7.58;61.40;100359.80;1771039;78;21047;-68
2022/02/11 07:57:50;;;;;;;13.45;9.68;;;;;;;7.58;61.25;100356.62;1767671;80;21000;-68
2022/02/11 08:00:17;;;;;;;15.20;11.05;;;;;;;7.64;61.18;100354.33;1771463;78;21042;-68
2022/02/11 08:02:44;;;;;;;14.78;10.68;;;;;;;7.76;61.29;100355.55;1767603;80;21503;-68
2022/02/11 08:05:10;;;;;;;16.20;11.60;;;;;;;7.90;61.12;100354.19;1767799;80;20995;-68
2022/02/11 08:07:37;;;;;;;13.65;10.65;;;;;;;8.08;60.60;100355.75;1799136;78;21573;-68
2022/02/11 08:10:05;;;;;;;13.95;10.75;;;;;;;8.26;60.55;100357.84;1801149;79;21019;-68
2022/02/11 08:12:34;;;;;;;15.38;10.88;;;;;;;8.44;60.09;100350.94;1800379;78;20991;-68
2022/02/11 08:15:03;;;;;;;14.10;10.15;;;;;;;8.62;59.59;100337.82;1801151;79;21163;-68
2022/02/11 08:17:30;;;;;;;13.15;10.70;;;;;;;8.79;59.14;100345.75;1800776;79;20983;-68
2022/02/11 08:19:59;;;;;;;14.20;10.48;;;;;;;8.89;58.71;100365.30;1800514;79;21034;-69
2022/02/11 08:22:26;;;;;;;14.05;10.63;;;;;;;8.99;58.48;100343.30;1800947;79;21581;-68
2022/02/11 08:24:52;;;;;;;13.90;10.48;;;;;;;9.08;58.14;100355.11;1801032;79;20995;-68
2022/02/11 08:27:19;;;;;;;13.38;10.00;;;;;;;9.14;57.84;100349.28;1801059;79;21055;-69
2022/02/11 08:29:46;;;;;;;13.48;9.73;;;;;;;9.15;57.90;100356.24;1800824;79;21047;-69
2022/02/11 08:32:14;;;;;;;13.53;10.53;;;;;;;9.14;58.01;100355.95;1801046;79;21043;-69
2022/02/11 08:34:42;;;;;;;14.03;10.70;;;;;;;9.11;57.98;100357.28;1801014;79;21062;-68
2022/02/11 08:37:09;;;;;;;14.58;11.57;;;;;;;9.05;58.05;100363.61;1801111;79;21471;-68
2022/02/11 08:39:38;;;;;;;13.83;10.78;;;;;;;8.97;58.19;100365.38;1801129;79;21754;-70
2022/02/11 08:42:06;;;;;;;14.47;10.68;;;;;;;8.85;58.59;100373.52;1801011;79;21030;-69
2022/02/11 08:44:34;;;;;;;13.30;10.68;;;;;;;8.72;58.93;100387.72;1801291;79;21640;-69
2022/02/11 08:47:01;;;;;;;12.90;10.20;;;;;;;8.58;59.26;100380.64;1801189;79;20943;-68
2022/02/11 08:49:30;;;;;;;15.40;10.55;;;;;;;8.48;59.52;100385.31;1801131;79;20990;-70
2022/02/11 08:51:56;;;;;;;14.18;10.53;;;;;;;8.42;59.68;100385.80;1801287;79;21798;-68
2022/02/11 08:54:23;;;;;;;13.88;10.10;;;;;;;8.33;59.86;100387.77;1801142;79;20936;-67
2022/02/11 08:56:49;;;;;;;14.30;10.03;;;;;;;8.29;60.07;100394.11;1801133;79;21046;-68
2022/02/11 08:59:16;;;;;;;13.68;10.48;;;;;;;8.28;60.11;100396.99;1801199;79;20955;-67
2022/02/11 09:01:46;;;;;;;13.48;10.03;;;;;;;8.28;60.21;100395.14;1801227;79;21406;-67
2022/02/11 09:04:13;;;;;;;15.68;10.70;;;;;;;8.26;60.22;100385.78;1801221;79;22220;-68
2022/02/11 09:06:40;;;;;;;13.32;10.50;;;;;;;8.27;60.27;100398.86;1801083;79;21054;-69
2022/02/11 09:09:08;;;;;;;14.10;10.40;;;;;;;8.28;60.27;100402.31;1801039;78;21007;-68
2022/02/11 09:11:36;;;;;;;15.10;11.05;;;;;;;8.27;60.27;100404.18;1800984;79;20987;-69
2022/02/11 09:14:05;;;;;;;15.38;10.63;;;;;;;8.32;60.26;100404.76;1801177;79;21018;-68
2022/02/11 09:16:33;;;;;;;15.35;11.28;;;;;;;8.35;60.14;100409.59;1801042;79;21139;-68
2022/02/11 09:19:00;;;;;;;16.90;12.03;;;;;;;8.32;60.10;100410.88;1801005;79;21406;-69
2022/02/11 09:21:27;;;;;;;13.58;10.32;;;;;;;8.33;60.16;100395.75;1801193;79;20998;-69
2022/02/11 09:23:54;;;;;;;13.22;10.58;;;;;;;8.33;60.23;100403.20;1800982;79;20965;-69
2022/02/11 09:26:21;;;;;;;14.23;11.05;;;;;;;8.36;60.29;100412.55;1800926;79;21039;-69
2022/02/11 09:28:48;;;;;;;15.30;11.25;;;;;;;8.42;60.37;100408.91;1801081;79;22117;-68
2022/02/11 09:31:15;;;;;;;19.07;13.18;;;;;;;8.43;60.30;100386.59;1801367;79;21050;-69
2022/02/11 09:33:43;;;;;;;15.58;12.70;;;;;;;8.41;60.39;100408.64;1801175;79;21478;-69
2022/02/11 09:36:11;;;;;;;17.48;13.58;;;;;;;8.37;60.55;100405.64;1801245;79;21074;-68
2022/02/11 09:38:39;;;;;;;18.75;13.80;;;;;;;8.34;60.74;100400.01;1801113;79;20971;-70
2022/02/11 09:41:06;;;;;;;16.95;12.65;;;;;;;8.31;60.91;100409.81;1801704;79;21020;-68
2022/02/11 09:43:33;;;;;;;17.05;13.03;;;;;;;8.30;61.01;100414.33;1801166;79;21070;-69
2022/02/11 09:45:59;;;;;;;16.90;12.73;;;;;;;8.28;61.19;100408.97;1801429;79;20979;-69
2022/02/11 09:48:26;;;;;;;16.95;13.50;;;;;;;8.28;61.27;100403.64;1801128;79;21556;-67
2022/02/11 09:50:55;;;;;;;18.07;13.43;;;;;;;8.32;61.26;100396.78;1801255;79;20955;-68
2022/02/11 09:53:28;;;;;;;16.87;13.45;;;;;;;8.31;61.16;100401.30;1800840;79;21938;-68
2022/02/11 09:55:55;;;;;;;19.73;14.58;;;;;;;8.35;61.19;100398.42;1801099;79;21027;-68
2022/02/11 09:58:22;;;;;;;18.20;13.80;;;;;;;8.40;61.20;100390.55;1801073;79;20967;-69
2022/02/11 10:00:50;;;;;;;19.92;14.20;;;;;;;8.42;61.15;100396.94;1801157;79;20975;-69
2022/02/11 10:03:31;;;;;;;19.17;14.38;;;;;;;8.44;61.17;100404.97;1801221;78;21486;-69
2022/02/11 10:06:04;;;;;;;19.77;14.30;;;;;;;8.51;61.19;100402.66;1801002;79;21773;-67
2022/02/11 10:08:34;;;;;;;18.20;13.85;;;;;;;8.53;61.00;100402.69;1800808;78;20940;-67
2022/02/11 10:11:05;;;;;;;17.67;13.35;;;;;;;8.57;60.94;100398.48;1800942;79;20951;-68
2022/02/11 10:13:40;;;;;;;16.90;12.78;;;;;;;8.52;60.91;100407.72;1800733;79;21015;-68
2022/02/11 10:16:10;;;;;;;18.62;13.35;;;;;;;8.54;61.04;100430.11;1800215;78;21082;-68
2022/02/11 10:18:42;;;;;;;18.27;14.07;;;;;;;8.50;61.13;100422.34;1797332;78;21030;-68
2022/02/11 10:21:20;;;;;;;19.60;14.10;;;;;;;8.52;61.35;100424.22;1801013;79;20975;-68
2022/02/11 10:23:44;;;;;;;19.80;14.68;;;;;;;8.49;61.42;100427.37;1800698;79;21019;-68
2022/02/11 10:26:15;;;;;;;21.42;14.75;;;;;;;8.50;61.50;100427.67;1800924;79;21467;-69
2022/02/11 10:28:51;;;;;;;17.60;14.68;;;;;;;8.55;61.49;100429.85;1800763;78;20947;-69
2022/02/11 10:31:31;;;;;;;20.12;13.93;;;;;;;8.61;61.52;100442.71;1800858;79;21073;-69
2022/02/11 10:34:10;;;;;;;18.02;13.85;;;;;;;8.55;61.54;100441.83;1800931;79;21470;-69
2022/02/11 10:36:43;;;;;;;18.52;14.58;;;;;;;8.55;61.58;100428.52;1800894;78;21030;-69
2022/02/11 10:39:15;;;;;;;19.05;14.53;;;;;;;8.50;61.65;100437.79;1801141;79;21228;-69
2022/02/11 10:42:02;;;;;;;22.85;14.90;;;;;;;8.48;61.73;100447.86;1801162;79;20988;-68
2022/02/11 10:44:36;;;;;;;20.52;14.75;;;;;;;8.43;61.93;100446.48;1800802;79;20995;-69
2022/02/11 10:47:07;;;;;;;20.43;15.32;;;;;;;8.38;61.93;100455.18;1801262;79;21542;-67
2022/02/11 10:49:40;;;;;;;19.87;15.00;;;;;;;8.34;62.05;100450.58;1801415;79;21074;-68
2022/02/11 10:52:21;;;;;;;19.95;14.58;;;;;;;8.28;62.26;100456.87;1801330;79;21466;-68
2022/02/11 10:54:53;;;;;;;21.33;15.53;;;;;;;8.21;62.54;100461.03;1801127;79;21482;-68
2022/02/11 10:57:23;;;;;;;20.77;15.30;;;;;;;8.19;62.69;100445.32;1801219;78;21094;-68
2022/02/11 10:59:50;;;;;;;20.92;15.72;;;;;;;8.19;62.94;100464.44;1799797;78;21467;-68
2022/02/11 11:02:19;;;;;;;20.88;15.25;;;;;;;8.19;63.05;100455.13;1801273;79;21054;-68
2022/02/11 11:04:49;;;;;;;21.00;15.70;;;;;;;8.24;63.13;100459.21;1801123;79;21471;-68
2022/02/11 11:07:30;;;;;;;20.55;15.75;;;;;;;8.31;63.12;100451.05;1800922;78;21101;-68
2022/02/11 11:09:57;;;;;;;22.40;16.90;;;;;;;8.38;63.02;100451.72;1800424;78;21119;-68
2022/02/11 11:12:25;;;;;;;19.02;14.63;;;;;;;8.43;62.92;100460.59;1800838;79;21030;-67
2022/02/11 11:14:54;;;;;;;19.90;15.32;;;;;;;8.49;62.81;100463.30;1801038;79;20979;-67
2022/02/11 11:17:20;;;;;;;19.42;15.32;;;;;;;8.45;62.82;100462.98;1800597;79;21070;-68
2022/02/11 11:19:49;;;;;;;19.20;14.00;;;;;;;8.51;62.86;100460.69;1801201;79;21031;-68
2022/02/11 11:22:19;;;;;;;19.85;14.87;;;;;;;8.57;62.78;100462.37;1800892;79;23262;-68
2022/02/11 11:25:05;;;;;;;19.62;14.68;;;;;;;8.63;62.67;100460.59;1800894;79;20991;-68
2022/02/11 11:27:50;;;;;;;19.45;14.50;;;;;;;8.65;62.56;100462.46;1801148;79;21090;-68
2022/02/11 11:30:37;;;;;;;17.32;13.20;;;;;;;8.67;62.48;100469.16;1801185;79;21545;-68
2022/02/11 11:33:12;;;;;;;17.77;12.88;;;;;;;8.66;62.30;100468.89;1801212;79;21101;-68
2022/02/11 11:35:58;;;;;;;18.37;14.18;;;;;;;8.62;62.26;100469.11;1801081;79;22230;-68
2022/02/11 11:38:40;;;;;;;19.12;14.40;;;;;;;8.56;62.38;100468.75;1801173;79;20963;-68
2022/02/11 11:41:17;;;;;;;17.85;13.88;;;;;;;8.54;62.52;100466.05;1801024;79;21042;-67
2022/02/11 11:43:50;;;;;;;21.30;15.05;;;;;;;8.50;62.65;100465.73;1799881;79;20991;-67
2022/02/11 11:46:23;;;;;;;16.77;12.80;;;;;;;8.50;62.74;100467.59;1800908;79;21058;-68
2022/02/11 11:49:07;;;;;;;19.77;15.08;;;;;;;8.50;62.82;100472.39;1801199;79;21473;-67
2022/02/11 11:51:42;;;;;;;17.25;13.20;;;;;;;8.54;62.81;100465.52;1800960;79;21160;-67
2022/02/11 11:54:21;;;;;;;16.48;13.15;;;;;;;8.59;62.83;100469.59;1801264;79;21007;-67
2022/02/11 11:57:02;;;;;;;16.73;12.88;;;;;;;8.64;62.74;100468.31;1800902;79;21501;-67
2022/02/11 11:59:39;;;;;;;16.65;12.47;;;;;;;8.71;62.66;100473.47;1801198;79;20940;-67
2022/02/11 12:02:12;;;;;;;16.40;12.85;;;;;;;8.74;62.42;100469.51;1801136;79;21996;-67
2022/02/11 12:04:45;;;;;;;17.25;12.73;;;;;;;8.79;62.33;100480.24;1801043;79;21487;-68
2022/02/11 12:07:17;;;;;;;17.05;13.13;;;;;;;8.84;62.24;100480.29;1800973;78;21422;-68
2022/02/11 12:09:49;;;;;;;17.27;12.95;;;;;;;8.80;62.04;100485.84;1801147;79;20995;-68
2022/02/11 12:12:25;;;;;;;18.60;13.65;;;;;;;8.78;62.11;100479.94;1800960;79;21026;-68
2022/02/11 12:14:56;;;;;;;15.45;12.20;;;;;;;8.80;61.97;100484.51;1801123;79;21097;-68
2022/02/11 12:17:24;;;;;;;17.15;12.90;;;;;;;8.81;61.99;100494.09;1800553;79;20940;-68
2022/02/11 12:19:51;;;;;;;16.50;12.70;;;;;;;8.81;61.92;100487.44;1800966;79;21038;-68
2022/02/11 12:22:20;;;;;;;18.30;13.80;;;;;;;8.81;61.85;100493.56;1801307;79;21507;-68
2022/02/11 12:27:41;;;;;;;15.88;12.00;;;;;;;8.84;61.61;100508.25;1769211;80;21547;-68
2022/02/11 12:30:22;;;;;;;17.50;13.65;;;;;;;8.88;61.20;100509.36;1769397;80;21590;-68
2022/02/11 12:32:56;;;;;;;19.10;12.90;;;;;;;8.91;61.18;100502.22;1769230;80;21078;-68
2022/02/11 12:35:31;;;;;;;16.27;12.60;;;;;;;8.97;60.89;100495.10;1769339;81;20967;-68
2022/02/11 12:38:02;;;;;;;17.42;13.05;;;;;;;8.99;60.58;100496.47;1769136;79;20947;-67
2022/02/11 12:40:35;;;;;;;18.50;12.43;;;;;;;9.01;60.30;100500.21;1769483;81;21498;-68
2022/02/11 12:43:05;;;;;;;15.28;11.60;;;;;;;9.03;60.07;100502.11;1769430;81;21459;-67
2022/02/11 12:45:36;;;;;;;15.23;11.50;;;;;;;9.06;60.00;100507.75;1787787;78;21043;-68
2022/02/11 12:48:05;;;;;;;15.20;10.88;;;;;;;9.06;59.24;100512.27;1801179;79;20991;-68
2022/02/11 12:50:36;;;;;;;14.03;10.40;;;;;;;9.06;58.93;100507.75;1801070;79;21097;-68
2022/02/11 12:53:07;;;;;;;14.53;10.30;;;;;;;9.09;58.67;100504.59;1801210;79;21514;-68
2022/02/11 12:55:36;;;;;;;15.93;10.73;;;;;;;9.08;58.51;100502.98;1800953;79;20963;-68
2022/02/11 12:58:08;;;;;;;13.38;9.73;;;;;;;9.08;58.25;100507.48;1801258;79;21226;-67
2022/02/11 13:00:39;;;;;;;12.78;9.38;;;;;;;9.07;58.01;100510.68;1801010;79;20956;-67
2022/02/11 13:03:06;;;;;;;13.62;9.58;;;;;;;9.05;57.93;100503.98;1801035;79;21007;-68
2022/02/11 13:05:44;;;;;;;11.35;8.28;;;;;;;9.02;57.99;100509.30;1800983;78;21073;-68
2022/02/11 13:08:22;;;;;;;14.95;9.98;;;;;;;8.98;57.95;100509.49;1801164;79;21019;-68
2022/02/11 13:10:57;;;;;;;13.93;9.60;;;;;;;8.92;57.86;100505.98;1801040;79;20992;-68
2022/02/11 13:13:24;;;;;;;14.25;9.95;;;;;;;8.85;57.92;100500.53;1800864;79;21455;-68
2022/02/11 13:15:55;;;;;;;14.18;9.83;;;;;;;8.78;58.05;100494.06;1801134;79;20998;-68
2022/02/11 13:18:23;;;;;;;14.33;9.98;;;;;;;8.72;58.17;100506.22;1801063;79;21084;-68
2022/02/11 13:21:04;;;;;;;13.75;10.10;;;;;;;8.66;58.32;100496.05;1800451;78;21161;-67
2022/02/11 13:23:31;;;;;;;13.53;9.90;;;;;;;8.63;58.50;100496.00;1780640;78;21011;-68
2022/02/11 13:25:58;;;;;;;13.35;9.18;;;;;;;8.63;58.59;100501.86;1748668;81;21035;-68
2022/02/11 13:28:31;;;;;;;14.43;10.72;;;;;;;8.62;58.52;100510.88;1768111;81;21141;-67
2022/02/11 13:31:00;;;;;;;13.75;9.80;;;;;;;8.59;58.48;100513.52;1766712;80;21833;-68
2022/02/11 13:33:32;;;;;;;12.50;8.93;;;;;;;8.60;58.54;100516.45;1767723;80;20999;-67
2022/02/11 13:36:04;;;;;;;12.78;9.28;;;;;;;8.63;58.51;100517.30;1768025;80;20960;-68
2022/02/11 13:38:35;;;;;;;12.63;8.88;;;;;;;8.65;58.43;100511.22;1795195;78;21105;-68
2022/02/11 13:41:07;;;;;;;11.90;8.95;;;;;;;8.72;58.21;100523.53;1801489;79;21457;-68
2022/02/11 13:43:58;;;;;;;11.75;8.68;;;;;;;8.78;58.02;100518.55;1801228;79;21063;-67
2022/02/11 13:46:31;;;;;;;12.80;9.73;;;;;;;8.82;57.60;100523.16;1801109;79;21085;-68
2022/02/11 13:49:12;;;;;;;13.10;9.23;;;;;;;8.86;57.42;100530.13;1801143;79;20947;-68
2022/02/11 13:51:40;;;;;;;12.13;8.85;;;;;;;8.93;57.30;100529.42;1800074;78;21026;-67
2022/02/11 13:54:13;;;;;;;13.18;9.08;;;;;;;8.92;56.79;100525.16;1800899;79;21022;-69
2022/02/11 13:56:45;;;;;;;12.75;8.90;;;;;;;8.90;56.82;100517.92;1801559;79;21126;-67
2022/02/11 13:59:23;;;;;;;14.45;9.63;;;;;;;8.92;56.63;100523.83;1801239;79;21422;-69
2022/02/11 14:01:47;;;;;;;14.55;10.75;;;;;;;8.97;56.59;100521.74;1800569;79;20975;-68
2022/02/11 14:04:21;;;;;;;20.95;12.75;;;;;;;8.99;56.64;100524.45;1800999;78;20932;-68
2022/02/11 14:06:57;;;;;;;13.88;10.43;;;;;;;8.99;56.69;100524.45;1801352;79;20971;-67
2022/02/11 14:09:37;;;;;;;13.53;9.53;;;;;;;9.04;56.65;100526.36;1801009;79;21124;-68
2022/02/11 14:12:06;;;;;;;9.70;7.25;;;;;;;9.07;56.47;100529.33;1801169;79;21506;-68
2022/02/11 14:14:34;;;;;;;11.30;8.28;;;;;;;9.06;56.05;100533.59;1801320;79;21585;-68
2022/02/11 14:17:04;;;;;;;10.72;8.20;;;;;;;9.03;56.10;100533.55;1801236;79;21521;-68
2022/02/11 14:19:30;;;;;;;10.53;6.78;;;;;;;9.03;55.75;100538.08;1801111;79;20947;-68
2022/02/11 14:21:59;;;;;;;8.80;6.17;;;;;;;8.99;55.69;100532.97;1800370;78;21194;-68
2022/02/11 14:24:27;;;;;;;9.18;5.72;;;;;;;8.94;55.67;100544.34;1796810;78;20975;-68
2022/02/11 14:26:54;;;;;;;7.83;5.12;;;;;;;8.89;55.51;100551.75;1801404;79;21133;-67
2022/02/11 14:29:21;;;;;;;6.80;4.83;;;;;;;8.90;55.66;100556.55;1800683;78;21609;-67
2022/02/11 14:31:49;;;;;;;6.25;4.37;;;;;;;8.92;55.67;100567.78;1801201;79;20987;-68
2022/02/11 14:34:16;;;;;;;8.10;5.15;;;;;;;8.92;55.55;100563.78;1801153;79;21749;-69
2022/02/11 14:36:44;;;;;;;5.55;3.67;;;;;;;8.92;55.50;100555.26;1801029;79;21423;-68
2022/02/11 14:39:13;;;;;;;5.17;3.42;;;;;;;8.91;55.09;100566.14;1800902;79;21015;-69
2022/02/11 14:41:48;;;;;;;4.72;2.87;;;;;;;8.87;54.42;100567.69;1801441;79;20987;-68
2022/02/11 14:44:23;;;;;;;5.03;3.00;;;;;;;8.82;53.96;100575.09;1801024;79;21027;-68
2022/02/11 14:46:53;;;;;;;4.45;2.87;;;;;;;8.71;53.71;100574.66;1801026;79;21135;-68
2022/02/11 14:49:19;;;;;;;5.83;3.62;;;;;;;8.60;53.82;100583.55;1800810;79;21495;-68
2022/02/11 14:51:50;;;;;;;5.22;3.37;;;;;;;8.48;53.95;100598.26;1801117;79;21514;-67
2022/02/11 14:54:17;;;;;;;6.22;3.47;;;;;;;8.36;54.23;100593.53;1800108;78;20996;-68
2022/02/11 14:56:44;;;;;;;5.97;3.67;;;;;;;8.23;54.48;100591.45;1801076;79;21053;-68
2022/02/11 14:59:11;;;;;;;7.83;4.20;;;;;;;8.14;54.78;100594.74;1823948;78;21087;-68
2022/02/11 15:01:39;;;;;;;6.80;3.58;;;;;;;8.03;55.01;100599.58;1809515;78;21091;-68
2022/02/11 15:04:06;;;;;;;6.05;3.75;;;;;;;7.92;55.28;100592.75;1791542;80;21061;-68
2022/02/11 15:06:33;;;;;;;6.45;4.20;;;;;;;7.83;55.61;100608.83;1791507;80;21018;-67
2022/02/11 15:09:02;;;;;;;7.20;4.10;;;;;;;7.74;55.88;100612.90;1762987;80;21179;-68
2022/02/11 15:11:29;;;;;;;8.10;4.62;;;;;;;7.65;56.20;100619.63;1791394;80;21792;-69